sensor_id;sensor_type;location;lat;lon;timestamp;pressure;altitude;pressure_sealevel;temperature;humidity
61037;BME280;57313;47.040;15.498;2022-08-19T00:01:48;96296.97;;;18.08;100.00
61037;BME280;57313;47.040;15.498;2022-08-19T00:04:21;96301.94;;;18.11;100.00
61037;BME280;57313;47.040;15.498;2022-08-19T00:06:49;96301.94;;;18.11;100.00
61037;BME280;57313;47.040;15.498;2022-08-19T00:09:18;96304.25;;;18.06;100.00
61037;BME280;57313;47.040;15.498;2022-08-19T00:11:46;96302.41;;;18.07;100.00
61037;BME280;57313;47.040;15.498;2022-08-19T00:14:17;96312.63;;;18.02;100.00
61037;BME280;57313;47.040;15.498;2022-08-19T00:16:46;96311.97;;;18.00;100.00
61037;BME280;57313;47.040;15.498;2022-08-19T00:19:15;96333.06;;;18.00;100.00
61037;BME280;57313;47.040;15.498;2022-08-19T00:21:42;96333.53;;;17.95;100.00
61037;BME280;57313;47.040;15.498;2022-08-19T00:24:12;96334.69;;;17.92;100.00
61037;BME280;57313;47.040;15.498;2022-08-19T00:26:41;96336.50;;;17.92;100.00
61037;BME280;57313;47.040;15.498;2022-08-19T00:29:11;96320.06;;;17.90;100.00
61037;BME280;57313;47.040;15.498;2022-08-19T00:31:41;96324.16;;;17.92;100.00
61037;BME280;57313;47.040;15.498;2022-08-19T00:34:08;96328.28;;;17.95;100.00
61037;BME280;57313;47.040;15.498;2022-08-19T00:36:35;96334.03;;;17.90;100.00
61037;BME280;57313;47.040;15.498;2022-08-19T00:39:03;96323.63;;;17.81;100.00
61037;BME280;57313;47.040;15.498;2022-08-19T00:41:31;96329.38;;;17.76;100.00
61037;BME280;57313;47.040;15.498;2022-08-19T00:44:00;96321.31;;;17.77;100.00
61037;BME280;57313;47.040;15.498;2022-08-19T00:46:29;96337.94;;;17.70;100.00
61037;BME280;57313;47.040;15.498;2022-08-19T00:49:00;96345.13;;;17.59;100.00
61037;BME280;57313;47.040;15.498;2022-08-19T00:51:30;96342.97;;;17.55;100.00
61037;BME280;57313;47.040;15.498;2022-08-19T00:53:58;96356.13;;;17.47;100.00
61037;BME280;57313;47.040;15.498;2022-08-19T00:56:27;96357.09;;;17.46;100.00
61037;BME280;57313;47.040;15.498;2022-08-19T00:58:56;96346.38;;;17.39;100.00
61037;BME280;57313;47.040;15.498;2022-08-19T01:01:25;96344.41;;;17.41;100.00
61037;BME280;57313;47.040;15.498;2022-08-19T01:03:53;96343.59;;;17.40;100.00
61037;BME280;57313;47.040;15.498;2022-08-19T01:06:26;96350.66;;;17.40;100.00
61037;BME280;57313;47.040;15.498;2022-08-19T01:08:54;96362.53;;;17.44;100.00
61037;BME280;57313;47.040;15.498;2022-08-19T01:11:21;96360.19;;;17.41;100.00
61037;BME280;57313;47.040;15.498;2022-08-19T01:13:50;96378.78;;;17.39;100.00
61037;BME280;57313;47.040;15.498;2022-08-19T01:16:21;96392.72;;;17.32;100.00
61037;BME280;57313;47.040;15.498;2022-08-19T01:18:50;96394.22;;;17.26;100.00
61037;BME280;57313;47.040;15.498;2022-08-19T01:21:22;96385.31;;;17.27;100.00
61037;BME280;57313;47.040;15.498;2022-08-19T01:23:54;96381.22;;;17.25;100.00
61037;BME280;57313;47.040;15.498;2022-08-19T01:26:23;96377.56;;;17.26;100.00
61037;BME280;57313;47.040;15.498;2022-08-19T01:28:56;96378.25;;;17.28;100.00
61037;BME280;57313;47.040;15.498;2022-08-19T01:31:28;96361.16;;;17.32;100.00
61037;BME280;57313;47.040;15.498;2022-08-19T01:33:59;96354.13;;;17.40;100.00
61037;BME280;57313;47.040;15.498;2022-08-19T01:36:29;96359.41;;;17.49;100.00
61037;BME280;57313;47.040;15.498;2022-08-19T01:39:00;96345.94;;;17.52;100.00
61037;BME280;57313;47.040;15.498;2022-08-19T01:41:29;96344.28;;;17.51;100.00
61037;BME280;57313;47.040;15.498;2022-08-19T01:43:57;96331.63;;;17.54;100.00
61037;BME280;57313;47.040;15.498;2022-08-19T01:46:44;96309.94;;;17.61;100.00
61037;BME280;57313;47.040;15.498;2022-08-19T01:49:13;96302.03;;;17.61;100.00
61037;BME280;57313;47.040;15.498;2022-08-19T01:51:40;96288.19;;;17.58;100.00
61037;BME280;57313;47.040;15.498;2022-08-19T01:54:12;96271.41;;;17.51;100.00
61037;BME280;57313;47.040;15.498;2022-08-19T01:56:57;96268.25;;;17.48;100.00
61037;BME280;57313;47.040;15.498;2022-08-19T01:59:28;96254.59;;;17.44;100.00
61037;BME280;57313;47.040;15.498;2022-08-19T02:01:57;96271.22;;;17.45;100.00
61037;BME280;57313;47.040;15.498;2022-08-19T02:04:24;96273.34;;;17.41;100.00
61037;BME280;57313;47.040;15.498;2022-08-19T02:06:52;96276.63;;;17.43;100.00
61037;BME280;57313;47.040;15.498;2022-08-19T02:09:21;96276.63;;;17.43;100.00
61037;BME280;57313;47.040;15.498;2022-08-19T02:11:48;96287.53;;;17.48;100.00
61037;BME280;57313;47.040;15.498;2022-08-19T02:14:16;96283.41;;;17.46;100.00
61037;BME280;57313;47.040;15.498;2022-08-19T02:16:43;96282.44;;;17.47;100.00
61037;BME280;57313;47.040;15.498;2022-08-19T02:19:11;96280.44;;;17.40;100.00
61037;BME280;57313;47.040;15.498;2022-08-19T02:21:38;96275.66;;;17.36;100.00
61037;BME280;57313;47.040;15.498;2022-08-19T02:24:06;96267.91;;;17.26;100.00
61037;BME280;57313;47.040;15.498;2022-08-19T02:26:35;96260.81;;;17.27;100.00
61037;BME280;57313;47.040;15.498;2022-08-19T02:29:03;96259.00;;;17.27;100.00
61037;BME280;57313;47.040;15.498;2022-08-19T02:31:31;96261.63;;;17.27;100.00
61037;BME280;57313;47.040;15.498;2022-08-19T02:33:58;96252.94;;;17.27;100.00
61037;BME280;57313;47.040;15.498;2022-08-19T02:36:26;96261.47;;;17.29;100.00
61037;BME280;57313;47.040;15.498;2022-08-19T02:38:54;96266.25;;;17.25;100.00
61037;BME280;57313;47.040;15.498;2022-08-19T02:41:24;96261.81;;;17.26;100.00
61037;BME280;57313;47.040;15.498;2022-08-19T02:43:54;96261.47;;;17.29;100.00
61037;BME280;57313;47.040;15.498;2022-08-19T02:46:42;96269.53;;;17.27;100.00
61037;BME280;57313;47.040;15.498;2022-08-19T02:49:09;96263.78;;;17.23;100.00
61037;BME280;57313;47.040;15.498;2022-08-19T02:51:41;96253.25;;;17.23;100.00
61037;BME280;57313;47.040;15.498;2022-08-19T02:54:10;96268.53;;;17.20;100.00
61037;BME280;57313;47.040;15.498;2022-08-19T02:56:39;96274.47;;;17.22;100.00
61037;BME280;57313;47.040;15.498;2022-08-19T02:59:08;96274.28;;;17.15;100.00
61037;BME280;57313;47.040;15.498;2022-08-19T03:01:39;96282.50;;;17.12;100.00
61037;BME280;57313;47.040;15.498;2022-08-19T03:04:09;96278.88;;;17.13;100.00
61037;BME280;57313;47.040;15.498;2022-08-19T03:06:39;96272.31;;;17.17;100.00
61037;BME280;57313;47.040;15.498;2022-08-19T03:09:06;96261.94;;;17.16;100.00
61037;BME280;57313;47.040;15.498;2022-08-19T03:11:34;96272.63;;;17.14;100.00
61037;BME280;57313;47.040;15.498;2022-08-19T03:14:04;96270.47;;;17.10;100.00
61037;BME280;57313;47.040;15.498;2022-08-19T03:16:41;96272.94;;;17.11;100.00
61037;BME280;57313;47.040;15.498;2022-08-19T03:19:08;96281.81;;;17.10;100.00
61037;BME280;57313;47.040;15.498;2022-08-19T03:21:36;96294.31;;;17.08;100.00
61037;BME280;57313;47.040;15.498;2022-08-19T03:24:05;96291.69;;;17.08;100.00
61037;BME280;57313;47.040;15.498;2022-08-19T03:26:38;96303.69;;;17.11;100.00
61037;BME280;57313;47.040;15.498;2022-08-19T03:29:06;96298.44;;;17.11;100.00
61037;BME280;57313;47.040;15.498;2022-08-19T03:31:39;96288.09;;;17.17;100.00
61037;BME280;57313;47.040;15.498;2022-08-19T03:34:19;96278.06;;;17.21;100.00
61037;BME280;57313;47.040;15.498;2022-08-19T03:36:47;96294.84;;;17.20;100.00
61037;BME280;57313;47.040;15.498;2022-08-19T03:39:15;96302.59;;;17.21;100.00
61037;BME280;57313;47.040;15.498;2022-08-19T03:41:45;96317.38;;;17.22;100.00
61037;BME280;57313;47.040;15.498;2022-08-19T03:44:18;96337.09;;;17.18;100.00
61037;BME280;57313;47.040;15.498;2022-08-19T03:46:50;96351.22;;;17.09;100.00
61037;BME280;57313;47.040;15.498;2022-08-19T03:49:18;96375.19;;;17.06;100.00
61037;BME280;57313;47.040;15.498;2022-08-19T03:51:47;96399.19;;;17.03;100.00
61037;BME280;57313;47.040;15.498;2022-08-19T03:54:17;96414.28;;;17.01;100.00
61037;BME280;57313;47.040;15.498;2022-08-19T03:56:47;96421.34;;;17.00;100.00
61037;BME280;57313;47.040;15.498;2022-08-19T03:59:17;96436.16;;;17.01;100.00
61037;BME280;57313;47.040;15.498;2022-08-19T04:01:44;96445.69;;;17.02;100.00
61037;BME280;57313;47.040;15.498;2022-08-19T04:04:13;96438.00;;;17.09;100.00
61037;BME280;57313;47.040;15.498;2022-08-19T04:06:42;96425.38;;;17.13;100.00
61037;BME280;57313;47.040;15.498;2022-08-19T04:09:12;96416.34;;;17.15;100.00
61037;BME280;57313;47.040;15.498;2022-08-19T04:11:43;96425.88;;;17.16;100.00
61037;BME280;57313;47.040;15.498;2022-08-19T04:14:13;96419.97;;;17.22;100.00
61037;BME280;57313;47.040;15.498;2022-08-19T04:16:42;96428.56;;;17.25;100.00
61037;BME280;57313;47.040;15.498;2022-08-19T04:19:13;96424.63;;;17.29;100.00
61037;BME280;57313;47.040;15.498;2022-08-19T04:21:43;96398.63;;;17.26;100.00
61037;BME280;57313;47.040;15.498;2022-08-19T04:24:12;96404.22;;;17.31;100.00
61037;BME280;57313;47.040;15.498;2022-08-19T04:26:40;96388.09;;;17.26;100.00
61037;BME280;57313;47.040;15.498;2022-08-19T04:29:10;96398.31;;;17.29;100.00
61037;BME280;57313;47.040;15.498;2022-08-19T04:31:39;96399.81;;;17.31;100.00
61037;BME280;57313;47.040;15.498;2022-08-19T04:34:09;96403.75;;;17.35;100.00
61037;BME280;57313;47.040;15.498;2022-08-19T04:36:41;96384.69;;;17.33;100.00
61037;BME280;57313;47.040;15.498;2022-08-19T04:39:11;96386.84;;;17.38;100.00
61037;BME280;57313;47.040;15.498;2022-08-19T04:41:39;96366.09;;;17.35;100.00
61037;BME280;57313;47.040;15.498;2022-08-19T04:44:07;96357.41;;;17.43;100.00
61037;BME280;57313;47.040;15.498;2022-08-19T04:46:34;96372.22;;;17.44;100.00
61037;BME280;57313;47.040;15.498;2022-08-19T04:49:06;96359.72;;;17.46;100.00
61037;BME280;57313;47.040;15.498;2022-08-19T04:51:42;96346.75;;;17.52;100.00
61037;BME280;57313;47.040;15.498;2022-08-19T04:54:11;96350.72;;;17.56;100.00
61037;BME280;57313;47.040;15.498;2022-08-19T04:56:39;96352.72;;;17.63;100.00
61037;BME280;57313;47.040;15.498;2022-08-19T04:59:07;96355.66;;;17.68;100.00
61037;BME280;57313;47.040;15.498;2022-08-19T05:01:35;96349.09;;;17.64;100.00
61037;BME280;57313;47.040;15.498;2022-08-19T05:04:03;96356.16;;;17.63;100.00
61037;BME280;57313;47.040;15.498;2022-08-19T05:06:32;96347.44;;;17.63;100.00
61037;BME280;57313;47.040;15.498;2022-08-19T05:09:03;96361.63;;;17.70;100.00
61037;BME280;57313;47.040;15.498;2022-08-19T05:11:33;96368.34;;;17.72;100.00
61037;BME280;57313;47.040;15.498;2022-08-19T05:14:02;96364.75;;;17.73;100.00
61037;BME280;57313;47.040;15.498;2022-08-19T05:16:29;96386.47;;;17.75;100.00
61037;BME280;57313;47.040;15.498;2022-08-19T05:18:57;96381.56;;;17.81;100.00
61037;BME280;57313;47.040;15.498;2022-08-19T05:21:25;96387.00;;;17.87;100.00
61037;BME280;57313;47.040;15.498;2022-08-19T05:23:53;96394.13;;;17.95;100.00
61037;BME280;57313;47.040;15.498;2022-08-19T05:26:22;96398.09;;;17.99;100.00
61037;BME280;57313;47.040;15.498;2022-08-19T05:28:49;96398.28;;;18.06;100.00
61037;BME280;57313;47.040;15.498;2022-08-19T05:31:21;96395.81;;;18.12;100.00
61037;BME280;57313;47.040;15.498;2022-08-19T05:33:48;96393.50;;;18.18;100.00
61037;BME280;57313;47.040;15.498;2022-08-19T05:36:16;96383.63;;;18.20;100.00
61037;BME280;57313;47.040;15.498;2022-08-19T05:38:43;96390.72;;;18.27;100.00
61037;BME280;57313;47.040;15.498;2022-08-19T05:41:13;96383.94;;;18.33;100.00
61037;BME280;57313;47.040;15.498;2022-08-19T05:43:42;96392.22;;;18.38;100.00
61037;BME280;57313;47.040;15.498;2022-08-19T05:46:16;96398.13;;;18.40;100.00
61037;BME280;57313;47.040;15.498;2022-08-19T05:48:53;96395.66;;;18.47;100.00
61037;BME280;57313;47.040;15.498;2022-08-19T05:51:22;96406.56;;;18.52;100.00
61037;BME280;57313;47.040;15.498;2022-08-19T05:53:54;96406.22;;;18.55;100.00
61037;BME280;57313;47.040;15.498;2022-08-19T05:56:21;96410.16;;;18.59;100.00
61037;BME280;57313;47.040;15.498;2022-08-19T05:58:50;96423.19;;;18.69;100.00
61037;BME280;57313;47.040;15.498;2022-08-19T06:01:18;96430.63;;;18.74;100.00
61037;BME280;57313;47.040;15.498;2022-08-19T06:03:47;96420.53;;;18.77;100.00
61037;BME280;57313;47.040;15.498;2022-08-19T06:06:15;96426.31;;;18.81;100.00
61037;BME280;57313;47.040;15.498;2022-08-19T06:08:43;96434.72;;;18.84;100.00
61037;BME280;57313;47.040;15.498;2022-08-19T06:11:16;96436.22;;;18.87;100.00
61037;BME280;57313;47.040;15.498;2022-08-19T06:13:45;96431.44;;;18.91;100.00
61037;BME280;57313;47.040;15.498;2022-08-19T06:16:15;96427.00;;;18.91;100.00
61037;BME280;57313;47.040;15.498;2022-08-19T06:18:42;96422.19;;;18.95;100.00
61037;BME280;57313;47.040;15.498;2022-08-19T06:21:10;96426.97;;;18.99;100.00
61037;BME280;57313;47.040;15.498;2022-08-19T06:23:38;96421.19;;;19.04;100.00
61037;BME280;57313;47.040;15.498;2022-08-19T06:26:11;96414.59;;;19.08;100.00
61037;BME280;57313;47.040;15.498;2022-08-19T06:28:39;96391.16;;;19.13;100.00
61037;BME280;57313;47.040;15.498;2022-08-19T06:31:07;96388.19;;;19.16;100.00
61037;BME280;57313;47.040;15.498;2022-08-19T06:33:37;96393.94;;;19.20;100.00
61037;BME280;57313;47.040;15.498;2022-08-19T06:36:06;96406.63;;;19.25;100.00
61037;BME280;57313;47.040;15.498;2022-08-19T06:38:34;96389.28;;;19.30;100.00
61037;BME280;57313;47.040;15.498;2022-08-19T06:41:03;96372.31;;;19.33;100.00
61037;BME280;57313;47.040;15.498;2022-08-19T06:43:34;96380.69;;;19.36;100.00
61037;BME280;57313;47.040;15.498;2022-08-19T06:46:10;96398.97;;;19.46;100.00
61037;BME280;57313;47.040;15.498;2022-08-19T06:48:42;96400.44;;;19.49;100.00
61037;BME280;57313;47.040;15.498;2022-08-19T06:51:12;96404.06;;;19.56;100.00
61037;BME280;57313;47.040;15.498;2022-08-19T06:53:40;96407.47;;;19.65;100.00
61037;BME280;57313;47.040;15.498;2022-08-19T06:56:08;96406.44;;;19.74;100.00
61037;BME280;57313;47.040;15.498;2022-08-19T06:58:35;96411.88;;;19.81;100.00
61037;BME280;57313;47.040;15.498;2022-08-19T07:01:03;96422.59;;;19.87;100.00
61037;BME280;57313;47.040;15.498;2022-08-19T07:03:36;96426.84;;;19.97;100.00
61037;BME280;57313;47.040;15.498;2022-08-19T07:06:10;96442.19;;;20.01;100.00
61037;BME280;57313;47.040;15.498;2022-08-19T07:08:59;96456.16;;;20.10;100.00
61037;BME280;57313;47.040;15.498;2022-08-19T07:11:27;96468.84;;;20.15;100.00
61037;BME280;57313;47.040;15.498;2022-08-19T07:13:55;96465.22;;;20.16;100.00
61037;BME280;57313;47.040;15.498;2022-08-19T07:16:23;96473.28;;;20.22;100.00
61037;BME280;57313;47.040;15.498;2022-08-19T07:18:55;96455.09;;;20.27;100.00
61037;BME280;57313;47.040;15.498;2022-08-19T07:21:27;96450.09;;;20.33;100.00
61037;BME280;57313;47.040;15.498;2022-08-19T07:23:56;96454.84;;;20.37;100.00
61037;BME280;57313;47.040;15.498;2022-08-19T07:26:26;96450.03;;;20.41;100.00
61037;BME280;57313;47.040;15.498;2022-08-19T07:28:54;96453.13;;;20.44;100.00
61037;BME280;57313;47.040;15.498;2022-08-19T07:31:23;96464.72;;;20.43;100.00
61037;BME280;57313;47.040;15.498;2022-08-19T07:33:53;96466.53;;;20.43;100.00
61037;BME280;57313;47.040;15.498;2022-08-19T07:36:26;96472.00;;;20.41;100.00
61037;BME280;57313;47.040;15.498;2022-08-19T07:38:54;96462.25;;;20.42;100.00
61037;BME280;57313;47.040;15.498;2022-08-19T07:41:24;96457.94;;;20.41;100.00
61037;BME280;57313;47.040;15.498;2022-08-19T07:43:52;96468.06;;;20.37;100.00
61037;BME280;57313;47.040;15.498;2022-08-19T07:46:19;96502.13;;;20.32;100.00
61037;BME280;57313;47.040;15.498;2022-08-19T07:48:49;96520.34;;;20.27;100.00
61037;BME280;57313;47.040;15.498;2022-08-19T07:51:20;96515.38;;;20.24;100.00
61037;BME280;57313;47.040;15.498;2022-08-19T07:54:04;96476.44;;;20.18;100.00
61037;BME280;57313;47.040;15.498;2022-08-19T07:56:31;96505.84;;;20.15;100.00
61037;BME280;57313;47.040;15.498;2022-08-19T07:58:59;96512.16;;;20.14;100.00
61037;BME280;57313;47.040;15.498;2022-08-19T08:01:27;96511.47;;;20.12;100.00
61037;BME280;57313;47.040;15.498;2022-08-19T08:03:57;96528.84;;;20.14;100.00
61037;BME280;57313;47.040;15.498;2022-08-19T08:06:24;96535.44;;;20.10;100.00
61037;BME280;57313;47.040;15.498;2022-08-19T08:08:54;96529.84;;;20.05;100.00
61037;BME280;57313;47.040;15.498;2022-08-19T08:11:25;96513.72;;;20.00;100.00
61037;BME280;57313;47.040;15.498;2022-08-19T08:13:55;96508.25;;;20.01;100.00
61037;BME280;57313;47.040;15.498;2022-08-19T08:16:28;96502.47;;;19.98;100.00
61037;BME280;57313;47.040;15.498;2022-08-19T08:18:56;96483.31;;;19.96;100.00
61037;BME280;57313;47.040;15.498;2022-08-19T08:21:23;96486.47;;;19.91;100.00
61037;BME280;57313;47.040;15.498;2022-08-19T08:23:51;96471.94;;;19.87;100.00
61037;BME280;57313;47.040;15.498;2022-08-19T08:26:22;96453.50;;;19.79;100.00
61037;BME280;57313;47.040;15.498;2022-08-19T08:28:51;96437.47;;;19.80;100.00
61037;BME280;57313;47.040;15.498;2022-08-19T08:31:19;96421.97;;;19.77;100.00
61037;BME280;57313;47.040;15.498;2022-08-19T08:33:46;96427.75;;;19.72;100.00
61037;BME280;57313;47.040;15.498;2022-08-19T08:36:15;96434.00;;;19.71;100.00
61037;BME280;57313;47.040;15.498;2022-08-19T08:38:43;96465.06;;;19.69;100.00
61037;BME280;57313;47.040;15.498;2022-08-19T08:41:18;96484.22;;;19.63;100.00
61037;BME280;57313;47.040;15.498;2022-08-19T08:43:51;96467.06;;;19.67;100.00
61037;BME280;57313;47.040;15.498;2022-08-19T08:46:24;96437.66;;;19.70;100.00
61037;BME280;57313;47.040;15.498;2022-08-19T08:49:02;96446.88;;;19.74;100.00
61037;BME280;57313;47.040;15.498;2022-08-19T08:51:34;96411.41;;;19.77;100.00
61037;BME280;57313;47.040;15.498;2022-08-19T08:54:05;96423.63;;;19.78;100.00
61037;BME280;57313;47.040;15.498;2022-08-19T08:56:37;96453.97;;;19.82;100.00
61037;BME280;57313;47.040;15.498;2022-08-19T08:59:12;96443.91;;;19.86;100.00
61037;BME280;57313;47.040;15.498;2022-08-19T09:01:40;96443.56;;;19.89;100.00
61037;BME280;57313;47.040;15.498;2022-08-19T09:04:08;96453.44;;;19.95;100.00
61037;BME280;57313;47.040;15.498;2022-08-19T09:06:46;96445.00;;;19.91;100.00
61037;BME280;57313;47.040;15.498;2022-08-19T09:09:20;96460.00;;;19.99;100.00
61037;BME280;57313;47.040;15.498;2022-08-19T09:11:57;96482.13;;;20.06;100.00
61037;BME280;57313;47.040;15.498;2022-08-19T09:14:37;96474.47;;;20.12;100.00
61037;BME280;57313;47.040;15.498;2022-08-19T09:17:18;96475.16;;;20.14;100.00
61037;BME280;57313;47.040;15.498;2022-08-19T09:19:53;96458.28;;;20.15;100.00
61037;BME280;57313;47.040;15.498;2022-08-19T09:22:21;96472.34;;;20.15;100.00
61037;BME280;57313;47.040;15.498;2022-08-19T09:24:54;96442.56;;;20.21;100.00
61037;BME280;57313;47.040;15.498;2022-08-19T09:27:22;96393.16;;;20.22;100.00
61037;BME280;57313;47.040;15.498;2022-08-19T09:30:15;96405.03;;;20.26;100.00
61037;BME280;57313;47.040;15.498;2022-08-19T09:32:44;96424.00;;;20.30;100.00
61037;BME280;57313;47.040;15.498;2022-08-19T09:35:14;96426.28;;;20.33;100.00
61037;BME280;57313;47.040;15.498;2022-08-19T09:37:42;96430.88;;;20.39;100.00
61037;BME280;57313;47.040;15.498;2022-08-19T09:40:11;96433.72;;;20.52;100.00
61037;BME280;57313;47.040;15.498;2022-08-19T09:42:39;96455.31;;;20.64;100.00
61037;BME280;57313;47.040;15.498;2022-08-19T09:45:21;96444.41;;;20.67;100.00
61037;BME280;57313;47.040;15.498;2022-08-19T09:47:50;96438.59;;;20.72;100.00
61037;BME280;57313;47.040;15.498;2022-08-19T09:50:20;96443.00;;;20.79;100.00
61037;BME280;57313;47.040;15.498;2022-08-19T09:52:48;96437.34;;;20.83;100.00
61037;BME280;57313;47.040;15.498;2022-08-19T09:55:24;96421.72;;;20.88;100.00
61037;BME280;57313;47.040;15.498;2022-08-19T09:58:00;96413.91;;;20.94;100.00
61037;BME280;57313;47.040;15.498;2022-08-19T10:00:29;96450.63;;;20.97;100.00
61037;BME280;57313;47.040;15.498;2022-08-19T10:02:57;96459.72;;;20.95;100.00
61037;BME280;57313;47.040;15.498;2022-08-19T10:05:26;96476.59;;;20.94;100.00
61037;BME280;57313;47.040;15.498;2022-08-19T10:07:56;96459.38;;;20.98;100.00
61037;BME280;57313;47.040;15.498;2022-08-19T10:10:24;96478.53;;;21.00;100.00
61037;BME280;57313;47.040;15.498;2022-08-19T10:12:52;96471.06;;;21.04;100.00
61037;BME280;57313;47.040;15.498;2022-08-19T10:15:20;96467.84;;;21.08;100.00
61037;BME280;57313;47.040;15.498;2022-08-19T10:17:56;96472.16;;;21.09;100.00
61037;BME280;57313;47.040;15.498;2022-08-19T10:20:24;96476.81;;;21.07;100.00
61037;BME280;57313;47.040;15.498;2022-08-19T10:22:52;96477.63;;;21.08;100.00
61037;BME280;57313;47.040;15.498;2022-08-19T10:25:19;96457.09;;;21.10;100.00
61037;BME280;57313;47.040;15.498;2022-08-19T10:27:47;96465.59;;;21.05;100.00
61037;BME280;57313;47.040;15.498;2022-08-19T10:30:18;96463.31;;;21.02;100.00
61037;BME280;57313;47.040;15.498;2022-08-19T10:32:46;96452.25;;;20.98;100.00
61037;BME280;57313;47.040;15.498;2022-08-19T10:35:16;96446.13;;;20.98;100.00
61037;BME280;57313;47.040;15.498;2022-08-19T10:37:49;96453.25;;;20.97;100.00
61037;BME280;57313;47.040;15.498;2022-08-19T10:40:28;96468.44;;;21.04;100.00
61037;BME280;57313;47.040;15.498;2022-08-19T10:42:55;96492.72;;;21.07;100.00
61037;BME280;57313;47.040;15.498;2022-08-19T10:45:23;96491.31;;;21.11;100.00
61037;BME280;57313;47.040;15.498;2022-08-19T10:47:51;96503.47;;;21.21;100.00
61037;BME280;57313;47.040;15.498;2022-08-19T10:50:21;96499.13;;;21.28;100.00
61037;BME280;57313;47.040;15.498;2022-08-19T10:52:56;96491.09;;;21.36;100.00
61037;BME280;57313;47.040;15.498;2022-08-19T10:55:24;96491.75;;;21.38;100.00
61037;BME280;57313;47.040;15.498;2022-08-19T10:57:55;96468.28;;;21.35;100.00
61037;BME280;57313;47.040;15.498;2022-08-19T11:00:31;96481.25;;;21.45;100.00
61037;BME280;57313;47.040;15.498;2022-08-19T11:02:59;96473.25;;;21.53;100.00
61037;BME280;57313;47.040;15.498;2022-08-19T11:05:28;96468.41;;;21.57;100.00
61037;BME280;57313;47.040;15.498;2022-08-19T11:08:05;96464.84;;;21.64;100.00
61037;BME280;57313;47.040;15.498;2022-08-19T11:10:50;96456.81;;;21.73;100.00
61037;BME280;57313;47.040;15.498;2022-08-19T11:13:18;96441.16;;;21.78;100.00
61037;BME280;57313;47.040;15.498;2022-08-19T11:15:45;96423.09;;;21.81;100.00
61037;BME280;57313;47.040;15.498;2022-08-19T11:18:13;96423.53;;;21.85;100.00
61037;BME280;57313;47.040;15.498;2022-08-19T11:20:44;96471.75;;;21.95;100.00
61037;BME280;57313;47.040;15.498;2022-08-19T11:23:11;96503.38;;;21.97;100.00
61037;BME280;57313;47.040;15.498;2022-08-19T11:25:38;96506.03;;;21.97;100.00
61037;BME280;57313;47.040;15.498;2022-08-19T11:28:06;96483.63;;;21.99;100.00
61037;BME280;57313;47.040;15.498;2022-08-19T11:30:33;96470.00;;;22.02;100.00
61037;BME280;57313;47.040;15.498;2022-08-19T11:33:01;96467.97;;;22.04;100.00
61037;BME280;57313;47.040;15.498;2022-08-19T11:35:29;96449.59;;;22.03;100.00
61037;BME280;57313;47.040;15.498;2022-08-19T11:37:59;96467.63;;;22.08;100.00
61037;BME280;57313;47.040;15.498;2022-08-19T11:40:27;96476.22;;;22.10;100.00
61037;BME280;57313;47.040;15.498;2022-08-19T11:42:55;96477.09;;;22.17;100.00
61037;BME280;57313;47.040;15.498;2022-08-19T11:45:23;96471.06;;;22.23;100.00
61037;BME280;57313;47.040;15.498;2022-08-19T11:47:51;96463.19;;;22.30;100.00
61037;BME280;57313;47.040;15.498;2022-08-19T11:50:19;96469.78;;;22.34;100.00
61037;BME280;57313;47.040;15.498;2022-08-19T11:52:47;96472.78;;;22.46;100.00
61037;BME280;57313;47.040;15.498;2022-08-19T11:55:17;96467.28;;;22.47;100.00
61037;BME280;57313;47.040;15.498;2022-08-19T11:57:45;96464.44;;;22.49;100.00
61037;BME280;57313;47.040;15.498;2022-08-19T12:00:14;96446.94;;;22.54;100.00
61037;BME280;57313;47.040;15.498;2022-08-19T12:02:42;96430.44;;;22.59;100.00
61037;BME280;57313;47.040;15.498;2022-08-19T12:05:10;96434.59;;;22.68;100.00
61037;BME280;57313;47.040;15.498;2022-08-19T12:07:39;96426.72;;;22.75;100.00
61037;BME280;57313;47.040;15.498;2022-08-19T12:10:07;96427.38;;;22.84;100.00
61037;BME280;57313;47.040;15.498;2022-08-19T12:12:39;96429.91;;;22.92;100.00
61037;BME280;57313;47.040;15.498;2022-08-19T12:15:08;96428.09;;;22.99;100.00
61037;BME280;57313;47.040;15.498;2022-08-19T12:17:36;96426.34;;;23.06;100.00
61037;BME280;57313;47.040;15.498;2022-08-19T12:20:05;96419.19;;;23.07;100.00
61037;BME280;57313;47.040;15.498;2022-08-19T12:22:33;96416.72;;;23.05;97.89
61037;BME280;57313;47.040;15.498;2022-08-19T12:25:00;96409.22;;;23.09;100.00
61037;BME280;57313;47.040;15.498;2022-08-19T12:27:28;96404.19;;;23.21;100.00
61037;BME280;57313;47.040;15.498;2022-08-19T12:30:11;96395.25;;;23.28;100.00
61037;BME280;57313;47.040;15.498;2022-08-19T12:32:39;96403.50;;;23.40;100.00
61037;BME280;57313;47.040;15.498;2022-08-19T12:35:08;96399.66;;;23.50;100.00
61037;BME280;57313;47.040;15.498;2022-08-19T12:37:36;96391.50;;;23.58;100.00
61037;BME280;57313;47.040;15.498;2022-08-19T12:40:05;96393.78;;;23.61;87.81
61037;BME280;57313;47.040;15.498;2022-08-19T12:42:33;96386.84;;;23.66;94.10
61037;BME280;57313;47.040;15.498;2022-08-19T12:45:00;96390.59;;;23.79;97.77
61037;BME280;57313;47.040;15.498;2022-08-19T12:47:32;96391.03;;;23.89;88.13
61037;BME280;57313;47.040;15.498;2022-08-19T12:50:04;96389.00;;;23.84;85.40
61037;BME280;57313;47.040;15.498;2022-08-19T12:52:33;96394.31;;;23.84;86.98
61037;BME280;57313;47.040;15.498;2022-08-19T12:55:01;96397.63;;;24.00;84.94